Decoded Metar for YSWG (WAGGA WAGGA in AUSTRALIA) (IATA:WGA) | Meteo·Mobile Aviation Weather
aviador You're here:

YSWG Decoded Metar

WAGGA WAGGA in AUSTRALIA
Report Time2018-12-18 21:00:00
UTC Time2018-12-18 21:40:24
Flight Rules vfr VFR
Wind070° at 13 kt
W.Decomp.*RWY 05: 12.9 kt HW 1.8 kt RCW
RWY 12: 6.1 kt HW 11.5 kt LCW
W.Rank070° ranks 2
Current wind is above 070° avg. (7.1)
Visibility9999 m
Phenomena:N/A
Clouds:N/A
Expected CloudBase > 2,800 ft AGL from Temp-Dew spread
CeilingNone
Temp23°C (ISA +9)
Dew Point16°C (65% RH)
AAT20.3°C
QNH1012 hPa
Density Alt2,067 ft
Elevation699 ft
Report Wrong Elevation
Raw Report
YSWG 182100Z AUTO 07013KT 9999 // NCD 23/16 Q1012=

Extra information for YSWG:More info

Metar Taf Metar & Taf Last 4 Metars F.Rules Stats Wind Profile Meteogram Temp Stats Airport Information Weather charts Add Link Nearby VenuesMetar ALERT Operation Metar Decoded Social comments